Time;durP1;ratioP1;P1;durP2;ratioP2;P2;SDS_P1;SDS_P2;PMS_P1;PMS_P2;Temp;Humidity;BMP_temperature;BMP_pressure;BME280_temperature;BME280_humidity;BME280_pressure;Samples;Min_cycle;Max_cycle;Signal;HPM_P1;HPM_P2
2022/09/02 00:02:22;;;;;;;8.13;4.23;;;16.30;99.90;;;;;;5044827;28;21034;-70
2022/09/02 00:05:08;;;;;;;11.07;5.43;;;16.20;99.90;;;;;;5048143;28;20471;-70
2022/09/02 00:07:55;;;;;;;7.50;5.03;;;16.30;99.90;;;;;;5056113;28;20422;-71
2022/09/02 00:10:43;;;;;;;4.87;4.37;;;16.20;99.90;;;;;;5045586;28;20499;-71
2022/09/02 00:13:29;;;;;;;6.93;4.40;;;16.20;99.90;;;;;;5049668;28;21003;-71
2022/09/02 00:16:16;;;;;;;5.63;5.03;;;16.10;99.90;;;;;;5053468;28;20421;-70
2022/09/02 00:19:04;;;;;;;5.20;4.50;;;16.10;99.90;;;;;;5057152;28;20444;-70
2022/09/02 00:21:50;;;;;;;4.47;4.00;;;16.10;99.90;;;;;;5050427;28;20568;-70
2022/09/02 00:24:36;;;;;;;6.70;5.20;;;16.00;99.90;;;;;;5058889;28;20426;-70
2022/09/02 00:27:22;;;;;;;6.67;4.60;;;16.00;99.90;;;;;;5050604;28;20443;-70
2022/09/02 00:30:08;;;;;;;5.47;4.80;;;15.90;99.90;;;;;;5057124;28;20490;-70
2022/09/02 00:32:55;;;;;;;4.33;3.80;;;15.80;99.90;;;;;;5055463;28;20539;-70
2022/09/02 00:35:42;;;;;;;5.17;4.67;;;15.80;99.90;;;;;;5058024;28;20933;-70
2022/09/02 00:38:28;;;;;;;5.80;4.53;;;15.90;99.90;;;;;;5055008;28;20454;-70
2022/09/02 00:41:14;;;;;;;4.70;4.17;;;15.90;99.90;;;;;;5052240;28;20573;-70
2022/09/02 00:44:04;;;;;;;6.00;4.73;;;15.90;99.90;;;;;;5053765;28;20428;-70
2022/09/02 00:46:49;;;;;;;5.70;4.37;;;15.90;99.90;;;;;;5057960;28;20587;-70
2022/09/02 00:49:41;;;;;;;5.90;4.60;;;15.80;99.90;;;;;;5049739;28;20487;-70
2022/09/02 00:52:29;;;;;;;5.03;4.40;;;15.80;99.90;;;;;;5051692;28;20924;-70
2022/09/02 00:55:21;;;;;;;5.60;4.70;;;15.90;99.90;;;;;;5056561;28;20473;-70
2022/09/02 00:58:13;;;;;;;4.03;3.63;;;15.80;99.90;;;;;;5056479;28;20904;-70
2022/09/02 01:01:00;;;;;;;6.10;3.47;;;15.80;99.90;;;;;;5055033;28;20554;-70
2022/09/02 01:03:46;;;;;;;6.67;4.07;;;15.90;99.90;;;;;;5057885;28;20637;-70
2022/09/02 01:06:33;;;;;;;12.10;3.90;;;15.90;99.90;;;;;;5056647;28;21003;-70
2022/09/02 01:09:19;;;;;;;4.10;3.70;;;15.80;99.90;;;;;;5060482;28;20466;-70
2022/09/02 01:12:05;;;;;;;6.00;4.93;;;15.70;99.90;;;;;;5051466;28;21064;-70
2022/09/02 01:14:51;;;;;;;7.27;4.53;;;15.80;99.90;;;;;;5054206;28;20500;-70
2022/09/02 01:17:40;;;;;;;5.23;4.70;;;15.80;99.90;;;;;;5052168;28;20488;-70
2022/09/02 01:20:27;;;;;;;4.87;4.37;;;15.70;99.90;;;;;;5044981;28;21004;-70
2022/09/02 01:23:15;;;;;;;7.93;4.70;;;15.50;99.90;;;;;;5051642;28;20512;-70
2022/09/02 01:26:02;;;;;;;4.40;3.93;;;15.50;99.90;;;;;;5051475;28;20448;-70
2022/09/02 01:28:47;;;;;;;6.60;5.13;;;15.50;99.90;;;;;;5048861;28;20455;-70
2022/09/02 01:31:33;;;;;;;4.97;4.47;;;15.50;99.90;;;;;;5049162;28;20447;-70
2022/09/02 01:34:18;;;;;;;10.33;4.43;;;15.60;99.90;;;;;;5051997;28;20930;-70
2022/09/02 01:37:04;;;;;;;5.27;4.23;;;15.50;99.90;;;;;;5051600;28;20528;-70
2022/09/02 01:39:52;;;;;;;5.87;3.97;;;15.50;99.90;;;;;;5048876;28;20525;-71
2022/09/02 01:42:39;;;;;;;6.43;4.50;;;15.50;99.90;;;;;;5059668;28;20502;-70
2022/09/02 01:45:25;;;;;;;4.07;3.67;;;15.50;99.90;;;;;;5048257;28;20502;-70
2022/09/02 01:48:11;;;;;;;6.63;3.63;;;15.50;99.90;;;;;;5052182;28;20443;-70
2022/09/02 01:51:01;;;;;;;4.53;4.10;;;15.60;99.90;;;;;;5047350;28;20475;-70
2022/09/02 01:53:47;;;;;;;4.80;3.70;;;15.50;99.90;;;;;;5048561;28;20435;-70
2022/09/02 01:56:34;;;;;;;4.13;3.73;;;15.60;99.90;;;;;;5050559;28;20455;-70
2022/09/02 01:59:20;;;;;;;7.80;4.00;;;15.60;99.90;;;;;;5048816;28;20545;-70
2022/09/02 02:02:06;;;;;;;4.97;3.90;;;15.60;99.90;;;;;;5053494;28;20586;-70
2022/09/02 02:04:52;;;;;;;5.13;4.50;;;15.70;99.90;;;;;;5054266;28;20455;-70
2022/09/02 02:07:38;;;;;;;4.50;3.87;;;15.80;99.90;;;;;;5050691;28;20586;-70
2022/09/02 02:10:24;;;;;;;5.10;3.83;;;15.70;99.90;;;;;;5047847;28;20491;-70
2022/09/02 02:13:11;;;;;;;4.10;3.70;;;15.80;99.90;;;;;;5053731;28;20464;-70
2022/09/02 02:15:57;;;;;;;3.63;3.10;;;15.80;99.90;;;;;;5056030;28;20447;-70
2022/09/02 02:18:43;;;;;;;5.73;3.00;;;15.90;99.90;;;;;;5054926;28;20501;-70
2022/09/02 02:21:28;;;;;;;6.70;3.47;;;15.80;99.90;;;;;;5048818;28;20429;-70
2022/09/02 02:24:14;;;;;;;4.40;3.60;;;15.70;99.90;;;;;;5056660;28;20406;-70
2022/09/02 02:26:59;;;;;;;5.37;4.17;;;15.60;99.90;;;;;;5052658;28;20825;-70
2022/09/02 02:29:47;;;;;;;6.60;3.67;;;15.60;99.90;;;;;;5051558;28;20956;-70
2022/09/02 02:32:32;;;;;;;4.30;3.67;;;15.80;99.90;;;;;;5051890;28;20454;-70
2022/09/02 02:35:19;;;;;;;6.40;3.67;;;15.80;99.90;;;;;;5051131;28;21092;-70
2022/09/02 02:38:04;;;;;;;4.43;3.33;;;15.70;99.90;;;;;;5051731;28;20467;-70
2022/09/02 02:40:54;;;;;;;4.30;3.60;;;15.70;99.90;;;;;;5049611;28;20467;-70
2022/09/02 02:43:40;;;;;;;4.47;3.77;;;15.70;99.90;;;;;;5053308;28;20423;-70
2022/09/02 02:46:29;;;;;;;9.90;5.27;;;15.70;99.90;;;;;;5048026;28;20633;-70
2022/09/02 02:49:15;;;;;;;4.40;3.93;;;15.70;99.90;;;;;;5047862;28;20542;-70
2022/09/02 02:52:01;;;;;;;9.17;3.90;;;15.70;99.90;;;;;;5050045;28;20827;-70
2022/09/02 02:54:46;;;;;;;4.37;3.67;;;15.70;99.90;;;;;;5052313;28;20455;-70
2022/09/02 02:57:32;;;;;;;3.80;3.10;;;15.70;99.90;;;;;;5049575;28;20498;-70
2022/09/02 03:00:21;;;;;;;5.53;3.27;;;15.60;99.90;;;;;;5049331;28;20458;-70
2022/09/02 03:03:10;;;;;;;3.93;3.10;;;15.60;99.90;;;;;;5052942;28;20422;-70
2022/09/02 03:05:56;;;;;;;5.40;3.30;;;15.50;99.90;;;;;;5053362;28;20456;-70
2022/09/02 03:08:43;;;;;;;3.80;3.20;;;15.40;99.90;;;;;;5048149;28;20454;-69
2022/09/02 03:11:29;;;;;;;4.40;3.70;;;15.50;99.90;;;;;;5050908;28;21096;-70
2022/09/02 03:14:16;;;;;;;4.20;3.80;;;15.30;99.90;;;;;;5053296;28;20485;-70
2022/09/02 03:17:02;;;;;;;3.97;3.33;;;15.40;99.90;;;;;;5049662;28;20512;-70
2022/09/02 03:19:49;;;;;;;5.07;3.93;;;15.40;99.90;;;;;;5045960;28;20463;-70
2022/09/02 03:22:37;;;;;;;5.27;3.70;;;15.40;99.90;;;;;;5048368;28;20442;-70
2022/09/02 03:25:24;;;;;;;5.33;4.60;;;15.30;99.90;;;;;;5050831;28;20459;-70
2022/09/02 03:28:10;;;;;;;4.93;3.47;;;15.40;99.90;;;;;;5051518;28;20429;-70
2022/09/02 03:30:56;;;;;;;7.30;3.13;;;15.30;99.90;;;;;;5049031;28;20592;-70
2022/09/02 03:33:42;;;;;;;3.90;3.50;;;15.20;99.90;;;;;;5051898;28;20429;-70
2022/09/02 03:36:31;;;;;;;4.40;3.50;;;15.20;99.90;;;;;;5051808;28;20447;-70
2022/09/02 03:39:17;;;;;;;5.27;3.70;;;15.20;99.90;;;;;;5040813;28;20509;-70
2022/09/02 03:42:03;;;;;;;5.23;3.23;;;15.30;99.90;;;;;;5053022;28;20443;-70
2022/09/02 03:44:48;;;;;;;3.40;3.10;;;15.20;99.90;;;;;;5050018;28;20980;-70
2022/09/02 03:47:34;;;;;;;3.63;3.33;;;15.00;99.90;;;;;;5048209;28;20463;-70
2022/09/02 03:50:23;;;;;;;4.40;3.67;;;15.10;99.90;;;;;;5036490;28;20445;-70
2022/09/02 03:53:11;;;;;;;4.53;3.53;;;15.10;99.90;;;;;;5056294;28;20436;-70
2022/09/02 03:55:58;;;;;;;4.90;3.10;;;15.20;99.90;;;;;;5052159;28;21102;-70
2022/09/02 03:58:46;;;;;;;4.23;3.20;;;15.10;99.90;;;;;;5046190;28;20435;-70
2022/09/02 04:01:32;;;;;;;3.03;2.60;;;15.10;99.90;;;;;;5047285;28;20459;-70
2022/09/02 04:04:19;;;;;;;5.27;3.30;;;15.20;99.90;;;;;;5057834;28;20563;-70
2022/09/02 04:07:05;;;;;;;5.63;3.13;;;15.20;99.90;;;;;;5051758;28;20971;-70
2022/09/02 04:09:52;;;;;;;6.47;3.10;;;15.20;99.90;;;;;;5046003;28;20596;-70
2022/09/02 04:12:38;;;;;;;7.80;3.50;;;15.10;99.90;;;;;;5049879;28;20421;-70
2022/09/02 04:15:24;;;;;;;5.30;3.37;;;15.10;99.90;;;;;;5049586;28;20558;-70
2022/09/02 04:18:09;;;;;;;5.43;3.37;;;15.10;99.90;;;;;;5056616;28;20825;-70
2022/09/02 04:21:00;;;;;;;4.23;3.27;;;15.10;99.90;;;;;;5050002;28;20443;-70
2022/09/02 04:23:46;;;;;;;4.83;3.50;;;15.00;99.90;;;;;;5053547;28;20429;-70
2022/09/02 04:26:33;;;;;;;3.53;3.13;;;14.90;99.90;;;;;;5050217;28;20551;-70
2022/09/02 04:29:19;;;;;;;4.70;3.33;;;14.90;99.90;;;;;;5045897;28;20445;-70
2022/09/02 04:32:06;;;;;;;9.77;3.20;;;14.80;99.90;;;;;;5053710;28;20485;-70
2022/09/02 04:34:51;;;;;;;10.87;5.80;;;14.80;99.90;;;;;;5046428;28;20570;-70
2022/09/02 04:37:38;;;;;;;8.10;2.33;;;14.80;99.90;;;;;;5053007;28;20929;-70
2022/09/02 04:40:24;;;;;;;6.47;3.10;;;14.80;99.90;;;;;;5049762;28;20455;-70
2022/09/02 04:43:11;;;;;;;4.50;2.87;;;14.80;99.90;;;;;;5049900;28;20901;-70
2022/09/02 04:45:56;;;;;;;3.80;2.60;;;14.80;99.90;;;;;;5057585;28;20557;-70
2022/09/02 04:48:43;;;;;;;3.30;2.90;;;14.90;99.90;;;;;;5050556;28;21020;-70
2022/09/02 04:51:30;;;;;;;4.10;3.30;;;14.80;99.90;;;;;;5052050;28;21018;-69
2022/09/02 04:54:15;;;;;;;5.03;3.10;;;14.80;99.90;;;;;;5052073;28;20426;-70
2022/09/02 04:57:01;;;;;;;4.67;3.10;;;14.90;99.90;;;;;;5048685;28;20610;-70
2022/09/02 04:59:48;;;;;;;4.50;3.40;;;14.80;99.90;;;;;;5048643;28;20468;-69
2022/09/02 05:02:34;;;;;;;4.50;3.37;;;14.70;99.90;;;;;;5060646;28;20925;-70
2022/09/02 05:05:20;;;;;;;3.90;3.00;;;14.80;99.90;;;;;;5051761;28;20975;-69
2022/09/02 05:08:06;;;;;;;3.30;3.00;;;14.90;99.90;;;;;;5053238;28;20941;-70
2022/09/02 05:10:52;;;;;;;4.77;3.30;;;14.80;99.90;;;;;;5050277;28;20474;-70
2022/09/02 05:13:39;;;;;;;3.60;2.90;;;14.80;99.90;;;;;;5052824;28;20443;-70
2022/09/02 05:16:28;;;;;;;3.17;2.37;;;14.90;99.90;;;;;;5056833;28;20567;-70
2022/09/02 05:19:14;;;;;;;4.00;2.80;;;14.90;99.90;;;;;;5050108;28;20540;-69
2022/09/02 05:22:00;;;;;;;7.83;3.40;;;14.90;99.90;;;;;;5054287;28;20978;-70
2022/09/02 05:24:46;;;;;;;3.13;2.53;;;14.80;99.90;;;;;;5059738;28;20429;-70
2022/09/02 05:27:32;;;;;;;3.83;2.93;;;14.90;99.90;;;;;;5049296;28;20678;-70
2022/09/02 05:30:18;;;;;;;3.90;3.00;;;14.90;99.90;;;;;;5051718;28;20471;-69
2022/09/02 05:33:06;;;;;;;10.00;2.63;;;15.00;99.90;;;;;;5053670;28;20982;-70
2022/09/02 05:35:53;;;;;;;4.60;2.60;;;15.00;99.90;;;;;;5053426;28;20452;-70
2022/09/02 05:38:39;;;;;;;4.20;2.60;;;15.00;99.90;;;;;;5047814;28;20462;-70
2022/09/02 05:41:26;;;;;;;4.60;2.83;;;15.00;99.90;;;;;;5055705;28;20581;-70
2022/09/02 05:44:12;;;;;;;4.17;2.63;;;15.10;99.90;;;;;;5054921;28;20439;-70
2022/09/02 05:46:57;;;;;;;4.30;3.37;;;15.10;99.90;;;;;;5060699;28;20421;-70
2022/09/02 05:49:45;;;;;;;3.17;2.33;;;15.30;99.90;;;;;;5054177;28;20453;-70
2022/09/02 05:52:31;;;;;;;4.10;2.60;;;15.30;99.90;;;;;;5055928;28;20439;-70
2022/09/02 05:55:17;;;;;;;3.17;2.53;;;15.30;99.90;;;;;;5051266;28;20426;-69
2022/09/02 05:58:02;;;;;;;6.03;2.70;;;15.40;99.90;;;;;;5048139;28;20571;-70
2022/09/02 06:00:48;;;;;;;3.87;2.83;;;15.50;99.90;;;;;;5053609;28;20479;-70
2022/09/02 06:03:34;;;;;;;3.70;3.20;;;15.60;99.90;;;;;;5050594;28;20452;-70
2022/09/02 06:06:22;;;;;;;6.50;2.60;;;15.70;99.90;;;;;;5050489;28;20458;-70
2022/09/02 06:09:10;;;;;;;5.00;3.40;;;15.90;99.90;;;;;;5048326;28;20456;-70
2022/09/02 06:11:56;;;;;;;3.77;2.60;;;15.90;99.90;;;;;;5056379;28;20474;-70
2022/09/02 06:14:42;;;;;;;6.23;3.00;;;15.90;99.90;;;;;;5047425;28;20519;-70
2022/09/02 06:17:28;;;;;;;2.80;2.33;;;16.00;99.90;;;;;;5050666;28;20448;-70
2022/09/02 06:20:13;;;;;;;3.67;2.67;;;16.10;99.90;;;;;;5052755;28;20822;-70
2022/09/02 06:23:01;;;;;;;3.80;2.43;;;16.10;99.90;;;;;;5081590;22;20487;-70
2022/09/02 06:25:49;;;;;;;2.93;2.30;;;16.30;99.90;;;;;;5067792;28;20447;-73
2022/09/02 06:28:35;;;;;;;3.50;3.17;;;16.40;99.90;;;;;;5066423;28;20475;-73
2022/09/02 06:31:22;;;;;;;6.33;2.37;;;16.60;99.90;;;;;;5060767;28;20537;-73
2022/09/02 06:34:11;;;;;;;3.47;2.90;;;16.80;99.90;;;;;;5068341;28;20437;-72
2022/09/02 06:36:57;;;;;;;3.90;2.23;;;16.90;99.90;;;;;;5065231;28;20465;-72
2022/09/02 06:39:45;;;;;;;3.70;2.17;;;17.10;99.70;;;;;;5070111;28;20581;-72
2022/09/02 06:42:31;;;;;;;2.53;2.17;;;17.30;94.20;;;;;;5069524;28;20477;-72
2022/09/02 06:45:16;;;;;;;3.50;2.10;;;17.40;94.60;;;;;;5069292;28;21071;-72
2022/09/02 06:48:02;;;;;;;3.07;2.30;;;17.50;90.30;;;;;;5066817;28;20521;-72
2022/09/02 06:50:48;;;;;;;3.30;2.10;;;17.70;90.00;;;;;;5064486;28;20565;-72
2022/09/02 06:53:34;;;;;;;4.70;2.40;;;17.80;91.10;;;;;;5069568;28;20787;-72
2022/09/02 06:56:21;;;;;;;2.70;2.00;;;18.00;86.10;;;;;;5070496;28;20455;-70
2022/09/02 06:59:08;;;;;;;3.97;1.93;;;18.10;89.80;;;;;;5068403;28;20481;-73
2022/09/02 07:01:53;;;;;;;3.00;2.10;;;18.20;85.40;;;;;;5068511;28;21192;-73
2022/09/02 07:07:46;;;;;;;3.17;1.97;;;18.40;73.30;;;;;;5060652;28;21031;-71
2022/09/02 07:10:32;;;;;;;2.60;1.80;;;18.50;75.90;;;;;;5059179;28;20443;-70
2022/09/02 07:13:19;;;;;;;3.07;1.70;;;18.60;71.30;;;;;;5067536;28;20977;-73
2022/09/02 07:16:06;;;;;;;5.10;2.17;;;18.80;73.60;;;;;;5073934;28;20450;-73
2022/09/02 07:18:51;;;;;;;4.63;2.20;;;18.90;72.80;;;;;;5066732;28;20996;-73
2022/09/02 07:21:39;;;;;;;3.60;1.97;;;19.00;72.10;;;;;;5059559;28;20559;-72
2022/09/02 07:24:24;;;;;;;3.80;2.20;;;19.10;73.20;;;;;;5067713;28;20439;-72
2022/09/02 07:27:11;;;;;;;3.33;1.97;;;19.30;68.00;;;;;;5064983;28;20800;-73
2022/09/02 07:29:58;;;;;;;5.10;2.40;;;19.40;65.80;;;;;;5063110;28;20807;-72
2022/09/02 07:32:44;;;;;;;6.50;2.10;;;19.50;63.90;;;;;;5074805;28;20470;-73
2022/09/02 07:35:30;;;;;;;2.90;1.90;;;19.60;64.60;;;;;;5066592;28;20429;-73
2022/09/02 07:38:15;;;;;;;5.70;2.00;;;19.60;63.00;;;;;;5068404;28;20442;-72
2022/09/02 07:41:01;;;;;;;8.63;2.20;;;19.70;63.50;;;;;;5060743;28;20426;-72
2022/09/02 07:43:47;;;;;;;2.80;1.83;;;19.80;61.00;;;;;;5064440;28;20505;-73
2022/09/02 07:46:35;;;;;;;3.27;2.10;;;19.80;60.50;;;;;;5070301;28;20458;-72
2022/09/02 07:49:21;;;;;;;5.73;2.00;;;19.90;61.00;;;;;;5066923;28;20548;-71
2022/09/02 07:52:07;;;;;;;3.37;2.00;;;20.00;60.00;;;;;;5066418;28;20478;-73
2022/09/02 07:54:53;;;;;;;4.97;2.23;;;20.10;59.40;;;;;;5068353;28;20448;-73
2022/09/02 07:57:38;;;;;;;3.40;2.07;;;20.20;60.00;;;;;;5064076;28;20446;-72
2022/09/02 08:00:26;;;;;;;3.30;2.00;;;20.30;57.10;;;;;;5065204;28;20419;-73
2022/09/02 08:03:14;;;;;;;3.43;2.30;;;20.40;57.10;;;;;;5067610;28;20994;-70
2022/09/02 08:05:59;;;;;;;5.13;1.67;;;20.50;56.30;;;;;;5068035;28;20566;-73
2022/09/02 08:08:45;;;;;;;4.30;2.03;;;20.60;54.00;;;;;;5062805;28;20480;-73
2022/09/02 08:11:33;;;;;;;4.10;1.93;;;20.60;54.00;;;;;;5067551;28;20532;-73
2022/09/02 08:14:23;;;;;;;4.60;2.20;;;20.70;52.40;;;;;;5074264;28;20456;-73
2022/09/02 08:17:09;;;;;;;3.00;1.83;;;20.80;51.40;;;;;;5066365;28;20485;-72
2022/09/02 08:19:56;;;;;;;3.87;2.10;;;20.80;50.30;;;;;;5067255;28;20446;-73
2022/09/02 08:22:41;;;;;;;2.87;1.53;;;20.90;51.20;;;;;;5067490;28;20493;-73
2022/09/02 08:25:27;;;;;;;2.77;1.90;;;21.00;46.60;;;;;;5065875;28;20455;-73
2022/09/02 08:28:13;;;;;;;2.30;1.57;;;21.00;45.60;;;;;;5065892;28;20442;-72
2022/09/02 08:30:58;;;;;;;4.20;1.67;;;21.10;45.40;;;;;;5068743;28;20946;-71
2022/09/02 08:33:44;;;;;;;2.77;1.47;;;21.20;47.80;;;;;;5070684;28;21066;-72
2022/09/02 08:36:31;;;;;;;5.93;2.17;;;21.30;43.10;;;;;;5065204;28;20856;-73
2022/09/02 08:39:17;;;;;;;5.00;2.20;;;21.30;42.90;;;;;;5062974;28;20939;-73
2022/09/02 08:42:08;;;;;;;4.80;1.53;;;21.40;43.00;;;;;;5063669;28;20492;-73
2022/09/02 08:44:59;;;;;;;3.63;1.50;;;21.50;41.20;;;;;;5062463;28;20841;-73
2022/09/02 08:47:49;;;;;;;3.17;1.63;;;21.50;42.20;;;;;;5066337;28;20588;-73
2022/09/02 08:50:36;;;;;;;5.30;1.70;;;21.70;41.40;;;;;;5066934;28;20397;-73
2022/09/02 08:53:30;;;;;;;3.00;1.73;;;21.70;39.80;;;;;;5067570;28;20571;-72
2022/09/02 08:56:17;;;;;;;12.83;1.93;;;21.80;41.50;;;;;;5069018;28;20934;-72
2022/09/02 08:59:05;;;;;;;2.50;1.70;;;21.90;41.60;;;;;;5072686;28;20443;-73
2022/09/02 09:01:55;;;;;;;4.87;1.80;;;22.10;38.80;;;;;;5072757;28;21082;-73
2022/09/02 09:05:05;;;;;;;2.50;1.70;;;22.10;38.00;;;;;;5065798;28;20584;-73
2022/09/02 09:08:03;;;;;;;3.07;1.63;;;22.20;36.10;;;;;;5063606;28;21033;-73
2022/09/02 09:10:59;;;;;;;2.93;1.70;;;22.30;38.50;;;;;;5066685;28;20574;-73
2022/09/02 09:14:02;;;;;;;2.83;1.70;;;22.40;35.50;;;;;;5072767;28;20561;-73
2022/09/02 09:16:56;;;;;;;2.87;1.30;;;22.40;31.30;;;;;;5062882;28;20454;-70
2022/09/02 09:19:49;;;;;;;2.90;1.40;;;22.40;31.60;;;;;;5067995;28;20397;-73
2022/09/02 09:22:38;;;;;;;3.20;1.60;;;22.60;33.40;;;;;;5065284;28;20470;-73
2022/09/02 09:25:28;;;;;;;5.63;1.83;;;22.60;31.40;;;;;;5071364;28;20501;-71
2022/09/02 09:28:15;;;;;;;3.57;1.63;;;22.70;32.20;;;;;;5062308;28;20955;-73
2022/09/02 09:31:01;;;;;;;3.73;1.90;;;22.80;31.80;;;;;;5067022;28;20583;-73
2022/09/02 09:33:57;;;;;;;9.30;2.33;;;22.90;30.20;;;;;;5070417;28;20569;-71
2022/09/02 09:36:50;;;;;;;3.50;1.57;;;23.00;30.90;;;;;;5063404;28;20978;-71
2022/09/02 09:39:35;;;;;;;2.83;1.23;;;23.10;31.10;;;;;;5068889;28;20426;-73
2022/09/02 09:42:31;;;;;;;6.47;1.50;;;23.10;30.80;;;;;;5061888;28;20450;-71
2022/09/02 09:45:21;;;;;;;3.07;1.30;;;23.10;29.00;;;;;;5068270;28;20936;-71
2022/09/02 09:48:26;;;;;;;3.60;2.20;;;23.10;27.90;;;;;;5062551;28;20438;-73
2022/09/02 09:51:18;;;;;;;3.20;1.70;;;23.20;29.00;;;;;;5066214;28;20952;-73
2022/09/02 09:54:15;;;;;;;2.97;1.30;;;23.30;29.20;;;;;;5068639;28;20439;-69
2022/09/02 09:57:16;;;;;;;2.87;1.10;;;23.40;29.20;;;;;;5065863;28;20777;-73
2022/09/02 10:00:10;;;;;;;2.50;1.30;;;23.50;26.70;;;;;;5067058;28;20473;-73
2022/09/02 10:03:00;;;;;;;2.50;1.50;;;23.70;26.50;;;;;;5061933;28;20983;-73
2022/09/02 10:05:45;;;;;;;3.20;1.40;;;23.80;26.60;;;;;;5066950;28;20529;-73
2022/09/02 10:08:31;;;;;;;6.33;1.40;;;23.90;25.90;;;;;;5064969;28;20439;-73
2022/09/02 10:11:22;;;;;;;4.55;1.23;;;24.00;24.80;;;;;;5064583;28;20422;-73
2022/09/02 10:14:11;;;;;;;2.50;1.37;;;24.10;25.90;;;;;;5059301;28;20297;-71
2022/09/02 10:17:03;;;;;;;4.23;1.23;;;24.10;24.90;;;;;;5067014;28;20447;-73
2022/09/02 10:19:55;;;;;;;3.07;1.43;;;24.10;25.30;;;;;;5070053;28;20501;-69
2022/09/02 10:23:03;;;;;;;5.83;1.60;;;24.10;24.40;;;;;;5060279;28;20459;-72
2022/09/02 10:25:58;;;;;;;3.83;1.10;;;24.10;23.90;;;;;;5066501;28;20452;-72
2022/09/02 10:29:02;;;;;;;7.43;1.20;;;24.20;23.40;;;;;;5063930;28;20522;-71
2022/09/02 10:31:57;;;;;;;2.43;1.20;;;24.30;23.50;;;;;;5071074;28;20851;-72
2022/09/02 10:34:54;;;;;;;2.70;1.53;;;24.40;24.40;;;;;;5065116;28;20439;-72
2022/09/02 10:37:59;;;;;;;3.80;1.67;;;24.60;23.20;;;;;;5062241;28;20532;-73
2022/09/02 10:40:47;;;;;;;4.00;1.40;;;24.70;24.40;;;;;;5056068;28;20432;-73
2022/09/02 10:43:49;;;;;;;2.10;1.03;;;24.80;22.80;;;;;;5068573;28;20427;-71
2022/09/02 10:46:43;;;;;;;2.90;1.20;;;24.80;22.40;;;;;;5060794;28;20509;-72
2022/09/02 10:49:45;;;;;;;2.10;1.17;;;24.80;23.50;;;;;;5069752;28;20431;-73
2022/09/02 10:52:48;;;;;;;3.00;1.13;;;24.90;22.80;;;;;;5068879;28;20896;-72
2022/09/02 10:55:44;;;;;;;2.50;1.20;;;25.00;22.40;;;;;;5064209;28;20930;-72
2022/09/02 10:58:40;;;;;;;7.90;1.57;;;24.80;21.60;;;;;;5069054;28;20931;-73
2022/09/02 11:01:31;;;;;;;5.50;1.53;;;24.80;22.70;;;;;;5060907;28;20876;-72
2022/09/02 11:04:22;;;;;;;5.50;1.37;;;24.90;23.20;;;;;;5067270;28;20446;-73
2022/09/02 11:07:10;;;;;;;2.70;1.40;;;24.90;23.30;;;;;;5066815;28;20447;-72
2022/09/02 11:10:03;;;;;;;2.53;1.10;;;25.00;22.30;;;;;;5070613;28;20426;-73
2022/09/02 11:12:54;;;;;;;2.30;1.20;;;25.10;22.00;;;;;;5064738;28;20542;-71
2022/09/02 11:15:47;;;;;;;3.40;1.23;;;25.20;22.50;;;;;;5055373;28;20570;-72
2022/09/02 11:18:43;;;;;;;2.83;1.47;;;25.30;19.20;;;;;;5067574;28;20427;-73
2022/09/02 11:21:43;;;;;;;3.80;1.23;;;25.30;20.60;;;;;;5066875;28;20606;-73
2022/09/02 11:24:34;;;;;;;2.87;1.10;;;25.30;21.40;;;;;;5064838;28;20935;-73
2022/09/02 11:27:30;;;;;;;2.37;1.20;;;25.30;20.80;;;;;;5063166;28;21007;-72
2022/09/02 11:30:19;;;;;;;2.27;1.33;;;25.40;20.10;;;;;;5062749;28;20550;-73
2022/09/02 11:33:14;;;;;;;2.33;1.20;;;25.30;19.60;;;;;;5065623;28;20474;-73
2022/09/02 11:36:00;;;;;;;4.50;1.10;;;25.30;20.80;;;;;;5062335;28;20533;-73
2022/09/02 11:38:53;;;;;;;2.70;1.60;;;25.40;19.80;;;;;;5068018;28;20427;-73
2022/09/02 11:41:53;;;;;;;2.73;1.10;;;25.50;21.30;;;;;;5069094;28;20442;-73
2022/09/02 11:45:00;;;;;;;4.13;1.40;;;25.50;21.40;;;;;;5065984;28;20433;-73
2022/09/02 11:48:16;;;;;;;5.20;1.50;;;25.60;21.00;;;;;;5065069;28;20427;-73
2022/09/02 11:51:21;;;;;;;6.10;1.30;;;25.60;21.70;;;;;;5040818;28;20790;-73
2022/09/02 11:54:09;;;;;;;3.43;1.70;;;25.70;21.10;;;;;;5058911;28;20520;-73
2022/09/02 11:57:00;;;;;;;2.80;1.60;;;25.80;21.10;;;;;;5062423;28;20451;-73
2022/09/02 12:00:07;;;;;;;7.23;1.00;;;25.90;21.10;;;;;;5064364;28;20422;-72
2022/09/02 12:02:59;;;;;;;3.83;1.37;;;26.00;19.70;;;;;;5062352;28;20963;-73
2022/09/02 12:05:54;;;;;;;1.93;1.10;;;25.90;19.60;;;;;;5059880;28;20451;-73
2022/09/02 12:09:11;;;;;;;5.23;1.50;;;26.00;19.60;;;;;;5067514;28;20443;-72
2022/09/02 12:11:56;;;;;;;2.27;1.30;;;26.10;19.80;;;;;;5067025;28;20446;-73
2022/09/02 12:15:13;;;;;;;2.27;0.87;;;26.20;19.80;;;;;;5058012;28;20427;-70
2022/09/02 12:18:32;;;;;;;4.33;1.30;;;26.40;19.90;;;;;;5064566;28;20426;-73
2022/09/02 12:21:19;;;;;;;3.07;1.37;;;26.60;18.60;;;;;;4968102;28;20515;-73
2022/09/02 12:24:11;;;;;;;2.70;1.23;;;26.60;19.00;;;;;;4973392;28;20790;-72
2022/09/02 12:27:25;;;;;;;4.27;1.20;;;26.60;19.20;;;;;;5047289;28;20451;-71
2022/09/02 12:30:13;;;;;;;2.60;1.27;;;26.60;19.10;;;;;;5059702;28;20426;-71
2022/09/02 12:33:28;;;;;;;1.90;0.90;;;26.80;18.10;;;;;;5069822;28;20477;-71
2022/09/02 12:36:45;;;;;;;5.20;1.20;;;26.90;17.80;;;;;;5062067;28;20462;-71
2022/09/02 12:39:53;;;;;;;2.30;0.90;;;26.90;17.60;;;;;;5063890;28;20416;-72
2022/09/02 12:42:41;;;;;;;2.87;1.17;;;27.10;18.00;;;;;;5065625;28;20467;-72
2022/09/02 12:45:32;;;;;;;2.73;1.00;;;27.30;18.20;;;;;;5062455;28;20451;-71
2022/09/02 12:48:25;;;;;;;4.93;1.10;;;27.50;16.80;;;;;;5073440;28;20656;-71
2022/09/02 12:51:10;;;;;;;3.77;1.23;;;27.60;16.00;;;;;;5066997;28;20640;-71
2022/09/02 12:53:56;;;;;;;2.40;1.20;;;27.70;17.20;;;;;;5067387;28;20463;-72
2022/09/02 12:56:48;;;;;;;4.23;1.40;;;27.90;17.40;;;;;;5052615;28;20445;-71
2022/09/02 12:59:37;;;;;;;2.53;1.30;;;28.20;16.90;;;;;;5058354;28;20960;-71
2022/09/02 13:02:44;;;;;;;4.10;1.60;;;28.40;16.50;;;;;;5062343;28;20965;-72
2022/09/02 13:05:43;;;;;;;2.67;1.30;;;28.60;14.60;;;;;;5058853;28;20535;-72
2022/09/02 13:08:54;;;;;;;2.90;1.40;;;28.20;15.00;;;;;;5057536;28;20447;-72
2022/09/02 13:12:02;;;;;;;2.17;0.90;;;28.40;15.30;;;;;;5060123;28;20466;-71
2022/09/02 13:14:58;;;;;;;2.53;1.17;;;28.50;15.50;;;;;;5060057;28;20427;-71
2022/09/02 13:17:56;;;;;;;2.30;0.93;;;28.60;15.20;;;;;;5062464;28;20458;-70
2022/09/02 13:21:07;;;;;;;2.50;0.97;;;28.80;15.10;;;;;;5068753;28;20504;-71
2022/09/02 13:24:21;;;;;;;2.50;1.10;;;28.80;14.80;;;;;;5064735;28;20462;-71
2022/09/02 13:27:22;;;;;;;2.40;1.20;;;29.00;14.80;;;;;;5061043;28;20816;-71
2022/09/02 13:30:15;;;;;;;2.87;1.60;;;28.90;15.60;;;;;;5072502;28;20469;-72
2022/09/02 13:33:07;;;;;;;2.50;1.13;;;29.10;14.30;;;;;;5068428;28;20526;-71
2022/09/02 13:35:56;;;;;;;2.83;1.23;;;29.20;13.50;;;;;;5063481;28;20431;-71
2022/09/02 13:38:42;;;;;;;4.53;1.40;;;29.40;15.10;;;;;;5067264;28;20473;-72
2022/09/02 13:41:30;;;;;;;2.23;1.00;;;29.50;14.70;;;;;;5066825;28;20462;-72
2022/09/02 13:44:21;;;;;;;3.87;1.80;;;29.60;14.10;;;;;;5064822;28;20539;-71
2022/09/02 13:47:16;;;;;;;2.30;1.13;;;29.70;13.70;;;;;;5062109;28;20540;-72
2022/09/02 13:50:05;;;;;;;3.93;1.50;;;29.80;13.80;;;;;;5059610;28;20447;-72
2022/09/02 13:52:53;;;;;;;3.43;1.60;;;29.90;12.90;;;;;;5065383;28;20486;-72
2022/09/02 13:55:46;;;;;;;2.00;0.90;;;29.80;13.40;;;;;;5061708;28;20439;-71
2022/09/02 13:58:36;;;;;;;3.40;1.37;;;29.20;12.60;;;;;;5069756;28;20824;-72
2022/09/02 14:01:26;;;;;;;2.73;1.00;;;29.30;14.60;;;;;;5063484;28;20470;-72
2022/09/02 14:04:18;;;;;;;2.43;1.30;;;29.50;14.10;;;;;;5062418;28;20438;-71
2022/09/02 14:07:09;;;;;;;3.07;1.20;;;29.90;12.80;;;;;;5065852;28;20459;-72
2022/09/02 14:09:57;;;;;;;2.47;0.80;;;30.40;12.20;;;;;;5062285;28;20454;-72
2022/09/02 14:12:50;;;;;;;5.67;1.30;;;30.60;12.10;;;;;;5063412;28;20474;-72
2022/09/02 14:15:42;;;;;;;3.93;1.60;;;30.70;12.50;;;;;;5065917;28;20450;-72
2022/09/02 14:18:39;;;;;;;2.47;1.10;;;30.60;11.90;;;;;;5067574;28;21005;-72
2022/09/02 14:21:29;;;;;;;2.83;1.17;;;30.40;12.30;;;;;;5068256;28;20477;-72
2022/09/02 14:24:27;;;;;;;2.80;1.07;;;30.40;11.50;;;;;;5062816;28;20436;-72
2022/09/02 14:27:21;;;;;;;6.40;4.90;;;30.30;11.30;;;;;;5062189;28;20583;-72
2022/09/02 14:30:09;;;;;;;3.13;1.10;;;30.20;12.40;;;;;;5075147;28;20990;-71
2022/09/02 14:33:17;;;;;;;3.60;1.00;;;30.20;13.00;;;;;;5068033;28;20451;-71
2022/09/02 14:36:05;;;;;;;3.80;1.40;;;30.10;11.10;;;;;;5066406;28;20446;-72
2022/09/02 14:38:53;;;;;;;4.70;1.40;;;30.00;11.80;;;;;;5066505;28;20902;-71
2022/09/02 14:41:45;;;;;;;4.77;2.90;;;30.00;12.70;;;;;;5062087;28;20478;-71
2022/09/02 14:44:35;;;;;;;2.40;1.20;;;29.80;12.80;;;;;;5066146;28;20463;-71
2022/09/02 14:47:23;;;;;;;2.97;1.57;;;29.80;12.20;;;;;;5064169;28;20522;-72